createdAt,value
2023-03-08T00:01:24.053Z,5.20
2023-03-08T00:03:53.964Z,5.20
2023-03-08T00:06:22.192Z,5.10
2023-03-08T00:08:49.934Z,5.10
2023-03-08T00:11:18.105Z,5.10
2023-03-08T00:13:45.611Z,5.20
2023-03-08T00:16:14.074Z,5.10
2023-03-08T00:18:41.804Z,5.10
2023-03-08T00:21:16.289Z,5.10
2023-03-08T00:23:44.857Z,5.10
2023-03-08T00:26:13.073Z,5.10
2023-03-08T00:28:42.094Z,5.00
2023-03-08T00:31:12.931Z,5.00
2023-03-08T00:33:40.674Z,5.00
2023-03-08T00:36:18.821Z,5.00
2023-03-08T00:38:48.221Z,4.90
2023-03-08T00:41:15.814Z,4.90
2023-03-08T00:43:43.520Z,4.80
2023-03-08T00:46:12.508Z,4.90
2023-03-08T00:48:40.329Z,4.90
2023-03-08T00:51:12.264Z,4.90
2023-03-08T00:53:39.780Z,4.90
2023-03-08T00:56:07.539Z,4.90
2023-03-08T00:58:39.425Z,4.90
2023-03-08T01:01:09.203Z,4.80
2023-03-08T01:03:36.702Z,4.70
2023-03-08T01:06:11.396Z,4.70
2023-03-08T01:08:42.045Z,4.60
2023-03-08T01:11:18.195Z,4.60
2023-03-08T01:13:47.807Z,4.60
2023-03-08T01:16:25.119Z,4.50
2023-03-08T01:18:53.354Z,4.40
2023-03-08T01:21:21.686Z,4.40
2023-03-08T01:23:49.903Z,4.30
2023-03-08T01:26:21.932Z,4.30
2023-03-08T01:28:50.189Z,4.30
2023-03-08T01:31:27.743Z,4.30
2023-03-08T01:33:57.407Z,4.20
2023-03-08T01:36:27.995Z,4.20
2023-03-08T01:38:55.972Z,4.10
2023-03-08T01:41:30.149Z,4.10
2023-03-08T01:43:57.862Z,4.10
2023-03-08T01:46:36.509Z,4.10
2023-03-08T01:49:30.314Z,4.10
2023-03-08T01:52:18.343Z,4.00
2023-03-08T01:54:54.910Z,4.00
2023-03-08T01:57:30.085Z,3.90
2023-03-08T02:00:09.650Z,3.90
2023-03-08T02:02:53.179Z,3.90
2023-03-08T02:05:21.734Z,3.80
2023-03-08T02:07:52.866Z,3.80
2023-03-08T02:10:21.685Z,3.80
2023-03-08T02:12:49.226Z,3.80
2023-03-08T02:15:20.280Z,3.70
2023-03-08T02:17:51.767Z,3.70
2023-03-08T02:20:32.808Z,3.70
2023-03-08T02:23:17.324Z,3.60
2023-03-08T02:25:59.120Z,3.70
2023-03-08T02:28:27.664Z,3.70
2023-03-08T02:30:56.535Z,3.60
2023-03-08T02:33:24.667Z,3.60
2023-03-08T02:35:52.612Z,3.70
2023-03-08T02:38:21.410Z,3.70
2023-03-08T02:40:51.533Z,3.70
2023-03-08T02:43:20.085Z,3.80
2023-03-08T02:45:47.938Z,3.80
2023-03-08T02:48:16.606Z,3.80
2023-03-08T02:50:44.477Z,3.80
2023-03-08T02:53:12.056Z,3.80
2023-03-08T02:55:39.890Z,3.90
2023-03-08T02:58:12.249Z,3.90
2023-03-08T03:00:40.044Z,3.90
2023-03-08T03:03:07.537Z,3.90
2023-03-08T03:05:35.522Z,4.00
2023-03-08T03:08:06.850Z,3.90
2023-03-08T03:13:06.069Z,4.00
2023-03-08T03:15:37.155Z,4.00
2023-03-08T03:18:05.818Z,4.00
2023-03-08T03:20:34.471Z,4.00
2023-03-08T03:23:02.310Z,4.00
2023-03-08T03:25:40.616Z,4.00
2023-03-08T03:28:12.213Z,4.00
2023-03-08T03:30:40.336Z,4.00
2023-03-08T03:33:11.010Z,4.00
2023-03-08T03:35:39.702Z,4.00
2023-03-08T03:38:08.281Z,4.00
2023-03-08T03:40:36.301Z,3.90
2023-03-08T03:43:05.047Z,3.90
2023-03-08T03:45:32.548Z,3.90
2023-03-08T03:48:00.353Z,3.80
2023-03-08T03:50:28.659Z,3.80
2023-03-08T03:53:01.522Z,3.80
2023-03-08T03:55:29.697Z,3.80
2023-03-08T03:57:57.435Z,3.80
2023-03-08T04:00:24.996Z,3.80
2023-03-08T04:03:04.410Z,3.80
2023-03-08T04:05:33.668Z,3.80
2023-03-08T04:08:01.227Z,3.90
2023-03-08T04:10:31.769Z,3.90
2023-03-08T04:13:00.038Z,3.90
2023-03-08T04:15:28.860Z,3.90
2023-03-08T04:17:58.321Z,3.90
2023-03-08T04:20:28.059Z,3.90
2023-03-08T04:22:59.360Z,3.90
2023-03-08T04:25:36.368Z,3.90
2023-03-08T04:28:05.637Z,3.90
2023-03-08T04:30:33.937Z,3.90
2023-03-08T04:33:03.447Z,3.90
2023-03-08T04:35:39.023Z,3.90
2023-03-08T04:38:07.005Z,3.90
2023-03-08T04:40:55.039Z,4.00
2023-03-08T04:43:22.793Z,4.00
2023-03-08T04:45:51.347Z,4.10
2023-03-08T04:48:19.254Z,4.10
2023-03-08T04:50:56.579Z,4.10
2023-03-08T04:53:26.894Z,4.10
2023-03-08T04:55:55.827Z,4.00
2023-03-08T04:58:24.087Z,4.10
2023-03-08T05:00:51.744Z,4.10
2023-03-08T05:03:19.852Z,4.10
2023-03-08T05:05:55.739Z,4.10
2023-03-08T05:08:23.699Z,4.10
2023-03-08T05:11:00.764Z,4.10
2023-03-08T05:13:37.750Z,4.10
2023-03-08T05:16:08.507Z,4.10
2023-03-08T05:18:36.498Z,4.10
2023-03-08T05:21:08.507Z,4.20
2023-03-08T05:23:37.769Z,4.20
2023-03-08T05:26:07.054Z,4.20
2023-03-08T05:28:37.158Z,4.10
2023-03-08T05:31:09.141Z,4.10
2023-03-08T05:33:39.272Z,4.10
2023-03-08T05:36:08.192Z,4.10
2023-03-08T05:38:36.061Z,4.20
2023-03-08T05:41:13.997Z,4.20
2023-03-08T05:43:44.180Z,4.20
2023-03-08T05:46:18.873Z,4.30
2023-03-08T05:48:47.746Z,4.20
2023-03-08T05:51:19.423Z,4.30
2023-03-08T05:53:47.496Z,4.30
2023-03-08T05:56:20.803Z,4.20
2023-03-08T05:58:55.775Z,4.20
2023-03-08T06:01:28.062Z,4.20
2023-03-08T06:04:01.046Z,4.20
2023-03-08T06:06:34.100Z,4.20
2023-03-08T06:09:04.639Z,4.20
2023-03-08T06:11:35.256Z,4.20
2023-03-08T06:14:03.888Z,4.20
2023-03-08T06:16:33.466Z,4.30
2023-03-08T06:19:02.994Z,4.30
2023-03-08T06:21:31.749Z,4.30
2023-03-08T06:24:04.460Z,4.30
2023-03-08T06:26:32.538Z,4.30
2023-03-08T06:29:00.375Z,4.30
2023-03-08T06:31:31.185Z,4.30
2023-03-08T06:33:58.732Z,4.40
2023-03-08T06:36:28.437Z,4.40
2023-03-08T06:38:56.083Z,4.40
2023-03-08T06:41:25.239Z,4.40
2023-03-08T06:43:56.794Z,4.40
2023-03-08T06:46:24.519Z,4.50
2023-03-08T06:48:52.730Z,4.50
2023-03-08T06:51:20.754Z,4.60
2023-03-08T06:53:48.410Z,4.60
2023-03-08T06:56:19.713Z,4.60
2023-03-08T06:58:47.371Z,4.70
2023-03-08T07:01:15.114Z,4.70
2023-03-08T07:03:44.812Z,4.70
2023-03-08T07:06:12.425Z,4.70
2023-03-08T07:08:40.114Z,4.80
2023-03-08T07:11:09.759Z,4.70
2023-03-08T07:13:38.723Z,4.80
2023-03-08T07:16:13.556Z,4.90
2023-03-08T07:18:41.903Z,4.80
2023-03-08T07:21:10.371Z,4.90
2023-03-08T07:23:37.946Z,4.90
2023-03-08T07:26:07.425Z,4.90
2023-03-08T07:28:35.754Z,4.90
2023-03-08T07:31:03.351Z,4.90
2023-03-08T07:33:30.981Z,4.90
2023-03-08T07:36:02.397Z,4.90
2023-03-08T07:38:30.040Z,4.90
2023-03-08T07:40:57.863Z,4.90
2023-03-08T07:43:25.653Z,4.90
2023-03-08T07:46:02.822Z,5.00
2023-03-08T07:48:31.957Z,5.00
2023-03-08T07:51:09.549Z,5.00
2023-03-08T07:53:37.722Z,5.00
2023-03-08T07:56:06.277Z,5.00
2023-03-08T07:58:33.831Z,5.00
2023-03-08T08:01:01.528Z,5.00
2023-03-08T08:03:29.898Z,5.10
2023-03-08T08:06:01.351Z,5.10
2023-03-08T08:08:28.883Z,5.20
2023-03-08T08:10:56.433Z,5.20
2023-03-08T08:13:23.935Z,5.20
2023-03-08T08:16:02.802Z,5.30
2023-03-08T08:18:30.347Z,5.30
2023-03-08T08:21:10.463Z,5.30
2023-03-08T08:23:39.755Z,5.20
2023-03-08T08:26:12.038Z,5.20
2023-03-08T08:28:40.886Z,5.20
2023-03-08T08:31:13.118Z,5.20
2023-03-08T08:33:41.129Z,5.20
2023-03-08T08:36:15.503Z,5.20
2023-03-08T08:38:49.060Z,5.30
2023-03-08T08:41:19.892Z,5.30
2023-03-08T08:43:48.660Z,5.30
2023-03-08T08:46:17.687Z,5.40
2023-03-08T08:48:45.174Z,5.40
2023-03-08T08:51:13.954Z,5.40
2023-03-08T08:53:41.783Z,5.50
2023-03-08T08:56:26.543Z,5.50
2023-03-08T08:59:02.075Z,5.50
2023-03-08T09:01:35.591Z,5.60
2023-03-08T09:04:03.240Z,5.70
2023-03-08T09:06:31.051Z,5.70
2023-03-08T09:08:59.359Z,5.70
2023-03-08T09:11:27.972Z,5.80
2023-03-08T09:13:55.977Z,5.90
2023-03-08T09:16:34.277Z,5.90
2023-03-08T09:19:04.324Z,5.90
2023-03-08T09:21:33.470Z,5.90
2023-03-08T09:24:05.553Z,5.90
2023-03-08T09:26:34.470Z,6.00
2023-03-08T09:29:05.411Z,6.00
2023-03-08T09:31:35.960Z,6.00
2023-03-08T09:34:08.621Z,6.00
2023-03-08T09:36:39.983Z,6.10
2023-03-08T09:39:10.401Z,6.10
2023-03-08T09:41:54.292Z,6.20
2023-03-08T09:44:51.887Z,6.20
2023-03-08T09:47:49.111Z,6.30
2023-03-08T09:50:35.708Z,6.40
2023-03-08T09:53:27.058Z,6.30
2023-03-08T09:56:29.574Z,6.40
2023-03-08T09:59:30.752Z,6.40
2023-03-08T10:02:59.265Z,6.60
2023-03-08T10:05:44.614Z,6.70
2023-03-08T10:08:33.465Z,6.80
2023-03-08T10:11:13.572Z,6.90
2023-03-08T10:13:47.340Z,6.90
2023-03-08T10:16:22.599Z,6.90
2023-03-08T10:19:05.276Z,6.90
2023-03-08T10:21:37.407Z,6.90
2023-03-08T10:24:44.593Z,6.90
2023-03-08T10:27:23.419Z,6.90
2023-03-08T10:29:58.514Z,6.90
2023-03-08T10:32:28.199Z,6.90
2023-03-08T10:35:04.797Z,7.10
2023-03-08T10:37:33.781Z,7.10
2023-03-08T10:40:20.386Z,7.20
2023-03-08T10:43:05.474Z,7.20
2023-03-08T10:45:33.555Z,7.30
2023-03-08T10:48:04.493Z,7.40
2023-03-08T10:50:36.329Z,7.50
2023-03-08T10:53:24.341Z,7.60
2023-03-08T10:55:52.970Z,7.60
2023-03-08T10:58:38.872Z,7.70
2023-03-08T11:01:22.239Z,7.80
2023-03-08T11:04:07.024Z,7.80
2023-03-08T11:06:35.451Z,8.00
2023-03-08T11:09:18.995Z,8.00
2023-03-08T11:11:46.549Z,8.20
2023-03-08T11:14:15.168Z,8.30
2023-03-08T11:17:13.816Z,8.50
2023-03-08T11:19:51.061Z,8.60
2023-03-08T11:22:27.332Z,8.70
2023-03-08T11:25:27.827Z,8.70
2023-03-08T11:28:36.338Z,8.70
2023-03-08T11:31:44.177Z,8.70
2023-03-08T11:34:55.690Z,8.80
2023-03-08T11:38:04.572Z,8.90
2023-03-08T11:41:19.866Z,8.90
2023-03-08T11:44:12.936Z,9.00
2023-03-08T11:47:13.681Z,9.10
2023-03-08T11:50:21.751Z,9.20
2023-03-08T11:53:00.664Z,9.30
2023-03-08T11:55:52.910Z,9.30
2023-03-08T11:58:41.271Z,9.40
2023-03-08T12:01:35.780Z,9.40
2023-03-08T12:04:24.874Z,9.60
2023-03-08T12:06:54.992Z,9.60
2023-03-08T12:09:42.179Z,9.70
2023-03-08T12:12:56.277Z,9.90
2023-03-08T12:15:49.153Z,10.00
2023-03-08T12:18:34.736Z,10.10
2023-03-08T12:21:34.338Z,10.30
2023-03-08T12:24:33.598Z,10.40
2023-03-08T12:27:26.057Z,10.40
2023-03-08T12:30:11.735Z,10.50
2023-03-08T12:32:42.841Z,10.60
2023-03-08T12:35:22.580Z,10.60
2023-03-08T12:38:18.939Z,10.60
2023-03-08T12:40:55.451Z,10.70
2023-03-08T12:43:22.823Z,10.70
2023-03-08T12:46:08.442Z,10.70
2023-03-08T12:48:45.170Z,10.70
2023-03-08T12:51:12.680Z,10.70
2023-03-08T12:53:51.709Z,10.70
2023-03-08T12:56:53.889Z,10.70
2023-03-08T12:59:21.261Z,10.70
2023-03-08T13:01:57.595Z,10.70
2023-03-08T13:04:40.489Z,10.80
2023-03-08T13:07:40.059Z,10.80
2023-03-08T13:10:25.492Z,10.90
2023-03-08T13:13:18.481Z,10.90
2023-03-08T13:16:26.285Z,11.00
2023-03-08T13:19:09.038Z,11.10
2023-03-08T13:21:47.457Z,11.20
2023-03-08T13:24:32.341Z,11.30
2023-03-08T13:27:34.585Z,11.30
2023-03-08T13:30:33.927Z,11.40
2023-03-08T13:33:08.240Z,11.40
2023-03-08T13:35:35.810Z,11.30
2023-03-08T13:38:03.418Z,11.30
2023-03-08T13:40:31.557Z,11.30
2023-03-08T13:43:05.075Z,11.30
2023-03-08T13:45:32.809Z,11.30
2023-03-08T13:48:08.972Z,11.20
2023-03-08T13:50:43.545Z,11.20
2023-03-08T13:53:18.192Z,11.20
2023-03-08T13:55:51.712Z,11.10
2023-03-08T13:58:33.781Z,11.00
2023-03-08T14:01:14.425Z,10.90
2023-03-08T14:03:43.970Z,10.80
2023-03-08T14:06:30.736Z,10.80
2023-03-08T14:09:02.016Z,10.80
2023-03-08T14:11:38.632Z,10.80
2023-03-08T14:14:15.004Z,10.80
2023-03-08T14:16:43.191Z,10.80
2023-03-08T14:19:38.738Z,10.80
2023-03-08T14:22:37.755Z,10.80
2023-03-08T14:25:07.191Z,10.80
2023-03-08T14:27:41.517Z,10.80
2023-03-08T14:30:15.578Z,10.80
2023-03-08T14:33:16.748Z,10.90
2023-03-08T14:35:53.887Z,10.90
2023-03-08T14:38:30.095Z,11.00
2023-03-08T14:41:03.327Z,11.00
2023-03-08T14:43:30.954Z,11.00
2023-03-08T14:46:05.499Z,11.00
2023-03-08T14:48:37.894Z,11.00
2023-03-08T14:51:24.808Z,11.00
2023-03-08T14:54:02.941Z,11.00
2023-03-08T14:56:32.259Z,11.00
2023-03-08T14:59:02.246Z,11.00
2023-03-08T15:01:35.997Z,11.00
2023-03-08T15:04:12.071Z,10.90
2023-03-08T15:06:41.375Z,10.90
2023-03-08T15:09:09.134Z,10.90
2023-03-08T15:11:36.974Z,11.00
2023-03-08T15:14:04.780Z,11.10
2023-03-08T15:16:32.377Z,11.20
2023-03-08T15:18:59.973Z,11.30
2023-03-08T15:21:29.817Z,11.50
2023-03-08T15:23:58.320Z,11.60
2023-03-08T15:26:31.620Z,11.80
2023-03-08T15:29:03.165Z,12.00
2023-03-08T15:31:31.988Z,12.10
2023-03-08T15:34:00.507Z,12.10
2023-03-08T15:36:32.392Z,12.00
2023-03-08T15:39:01.236Z,11.80
2023-03-08T15:41:28.696Z,11.70
2023-03-08T15:43:56.173Z,11.60
2023-03-08T15:46:23.893Z,11.50
2023-03-08T15:48:51.431Z,11.50
2023-03-08T15:51:21.588Z,11.40
2023-03-08T15:53:50.204Z,11.40
2023-03-08T15:56:17.891Z,11.40
2023-03-08T15:58:45.378Z,11.30
2023-03-08T16:01:12.903Z,11.30
2023-03-08T16:03:40.471Z,11.20
2023-03-08T16:06:16.522Z,11.20
2023-03-08T16:08:44.071Z,11.10
2023-03-08T16:11:15.454Z,11.10
2023-03-08T16:13:43.152Z,11.20
2023-03-08T16:16:10.784Z,11.10
2023-03-08T16:18:40.308Z,11.10
2023-03-08T16:21:09.606Z,11.10
2023-03-08T16:23:39.021Z,11.10
2023-03-08T16:26:16.680Z,11.10
2023-03-08T16:28:47.179Z,11.10
2023-03-08T16:31:16.689Z,11.10
2023-03-08T16:33:44.367Z,11.00
2023-03-08T16:36:12.569Z,10.90
2023-03-08T16:38:41.408Z,10.90
2023-03-08T16:41:13.909Z,10.80
2023-03-08T16:43:47.169Z,10.70
2023-03-08T16:46:19.986Z,10.80
2023-03-08T16:48:49.851Z,10.70
2023-03-08T16:51:20.152Z,10.70
2023-03-08T16:53:48.592Z,10.70
2023-03-08T16:56:25.367Z,10.70
2023-03-08T16:58:55.772Z,10.70
2023-03-08T17:01:24.565Z,10.70
2023-03-08T17:03:52.750Z,10.70
2023-03-08T17:06:24.457Z,10.70
2023-03-08T17:08:52.172Z,10.70
2023-03-08T17:11:23.243Z,10.60
2023-03-08T17:13:55.318Z,10.60
2023-03-08T17:16:27.265Z,10.70
2023-03-08T17:18:55.291Z,10.60
2023-03-08T17:21:23.376Z,10.60
2023-03-08T17:23:52.680Z,10.60
2023-03-08T17:26:23.149Z,10.60
2023-03-08T17:28:52.566Z,10.60
2023-03-08T17:31:22.766Z,10.60
2023-03-08T17:33:51.246Z,10.60
2023-03-08T17:36:20.247Z,10.60
2023-03-08T17:38:47.920Z,10.70
2023-03-08T17:41:16.956Z,10.70
2023-03-08T17:43:44.544Z,10.60
2023-03-08T17:46:24.286Z,10.70
2023-03-08T17:48:53.069Z,10.60
2023-03-08T17:51:25.324Z,10.60
2023-03-08T17:53:53.958Z,10.70
2023-03-08T17:56:29.410Z,10.60
2023-03-08T17:58:59.090Z,10.70
2023-03-08T18:01:30.703Z,10.60
2023-03-08T18:03:58.969Z,10.70
2023-03-08T18:06:35.618Z,10.60
2023-03-08T18:09:07.533Z,10.60
2023-03-08T18:11:37.634Z,10.60
2023-03-08T18:14:12.411Z,10.60
2023-03-08T18:16:40.752Z,10.60
2023-03-08T18:19:08.501Z,10.60
2023-03-08T18:21:36.990Z,10.60
2023-03-08T18:24:05.551Z,10.70
2023-03-08T18:26:33.433Z,10.70
2023-03-08T18:29:00.981Z,10.70
2023-03-08T18:31:30.890Z,10.70
2023-03-08T18:33:58.520Z,10.70
2023-03-08T18:36:26.172Z,10.70
2023-03-08T18:38:53.718Z,10.70
2023-03-08T18:41:26.990Z,10.70
2023-03-08T18:43:56.002Z,10.70
2023-03-08T18:46:28.724Z,10.80
2023-03-08T18:48:58.137Z,10.80
2023-03-08T18:51:25.669Z,10.70
2023-03-08T18:53:55.387Z,10.70
2023-03-08T18:56:25.626Z,10.70
2023-03-08T18:58:55.431Z,10.70
2023-03-08T19:01:24.061Z,10.70
2023-03-08T19:03:52.102Z,10.70
2023-03-08T19:06:19.739Z,10.70
2023-03-08T19:08:47.307Z,10.70
2023-03-08T19:11:21.993Z,10.60
2023-03-08T19:13:50.251Z,10.70
2023-03-08T19:16:23.722Z,10.70
2023-03-08T19:18:59.043Z,10.70
2023-03-08T19:21:39.410Z,10.60
2023-03-08T19:24:07.727Z,10.60
2023-03-08T19:26:37.710Z,10.60
2023-03-08T19:29:12.300Z,10.50
2023-03-08T19:31:50.185Z,10.50
2023-03-08T19:34:19.896Z,10.50
2023-03-08T19:36:48.501Z,10.50
2023-03-08T19:39:23.234Z,10.50
2023-03-08T19:42:01.530Z,10.50
2023-03-08T19:44:30.456Z,10.50
2023-03-08T19:46:58.595Z,10.50
2023-03-08T19:49:30.188Z,10.50
2023-03-08T19:52:01.077Z,10.50
2023-03-08T19:54:30.517Z,10.50
2023-03-08T19:56:59.322Z,10.50
2023-03-08T19:59:27.158Z,10.50
2023-03-08T20:01:55.845Z,10.50
2023-03-08T20:04:24.296Z,10.50
2023-03-08T20:06:52.058Z,10.50
2023-03-08T20:09:23.881Z,10.40
2023-03-08T20:11:57.502Z,10.40
2023-03-08T20:14:27.389Z,10.40
2023-03-08T20:16:56.201Z,10.40
2023-03-08T20:19:23.791Z,10.40
2023-03-08T20:21:51.343Z,10.40
2023-03-08T20:24:19.309Z,10.30
2023-03-08T20:26:47.421Z,10.30
2023-03-08T20:29:15.510Z,10.20
2023-03-08T20:31:44.971Z,10.20
2023-03-08T20:34:12.499Z,10.20
2023-03-08T20:36:39.994Z,10.20
2023-03-08T20:39:07.506Z,10.20
2023-03-08T20:41:35.060Z,10.20
2023-03-08T20:44:02.555Z,10.20
2023-03-08T20:46:33.227Z,10.20
2023-03-08T20:49:01.402Z,10.20
2023-03-08T20:51:29.018Z,10.20
2023-03-08T20:53:57.369Z,10.20
2023-03-08T20:56:26.181Z,10.20
2023-03-08T20:58:56.485Z,10.20
2023-03-08T21:01:31.939Z,10.20
2023-03-08T21:03:59.562Z,10.20
2023-03-08T21:06:30.523Z,10.20
2023-03-08T21:08:59.737Z,10.30
2023-03-08T21:11:28.641Z,10.30
2023-03-08T21:13:56.530Z,10.30
2023-03-08T21:16:26.632Z,10.30
2023-03-08T21:18:58.001Z,10.40
2023-03-08T21:21:36.053Z,10.40
2023-03-08T21:24:15.274Z,10.40
2023-03-08T21:26:44.170Z,10.40
2023-03-08T21:29:15.363Z,10.40
2023-03-08T21:31:48.330Z,10.50
2023-03-08T21:34:17.282Z,10.40
2023-03-08T21:36:45.195Z,10.40
2023-03-08T21:39:13.608Z,10.40
2023-03-08T21:41:44.529Z,10.50
2023-03-08T21:44:16.661Z,10.50
2023-03-08T21:46:46.379Z,10.50
2023-03-08T21:49:21.666Z,10.40
2023-03-08T21:51:50.217Z,10.40
2023-03-08T21:54:18.712Z,10.40
2023-03-08T21:56:47.046Z,10.30
2023-03-08T21:59:16.733Z,10.30
2023-03-08T22:01:48.289Z,10.30
2023-03-08T22:04:16.983Z,10.30
2023-03-08T22:06:44.586Z,10.40
2023-03-08T22:09:12.093Z,10.40
2023-03-08T22:11:40.168Z,10.40
2023-03-08T22:14:08.248Z,10.40
2023-03-08T22:16:41.761Z,10.40
2023-03-08T22:19:10.257Z,10.40
2023-03-08T22:21:37.919Z,10.40
2023-03-08T22:24:06.010Z,10.40
2023-03-08T22:26:33.599Z,10.40
2023-03-08T22:29:01.211Z,10.40
2023-03-08T22:31:30.288Z,10.40
2023-03-08T22:33:58.453Z,10.40
2023-03-08T22:36:25.985Z,10.30
2023-03-08T22:38:53.731Z,10.30
2023-03-08T22:41:24.959Z,10.20
2023-03-08T22:43:53.435Z,10.10
2023-03-08T22:46:24.692Z,10.20
2023-03-08T22:48:54.361Z,10.10
2023-03-08T22:51:23.032Z,10.20
2023-03-08T22:53:51.218Z,10.20
2023-03-08T22:56:29.489Z,10.20
2023-03-08T22:58:57.582Z,10.20
2023-03-08T23:01:26.342Z,10.20
2023-03-08T23:03:57.119Z,10.20
2023-03-08T23:06:28.036Z,10.20
2023-03-08T23:08:58.159Z,10.20
2023-03-08T23:11:26.878Z,10.30
2023-03-08T23:13:54.656Z,10.30
2023-03-08T23:16:22.596Z,10.30
2023-03-08T23:18:52.218Z,10.30
2023-03-08T23:21:22.968Z,10.30
2023-03-08T23:23:50.683Z,10.30
2023-03-08T23:26:23.788Z,10.30
2023-03-08T23:28:51.444Z,10.30
2023-03-08T23:31:22.721Z,10.30
2023-03-08T23:33:51.389Z,10.30
2023-03-08T23:36:22.322Z,10.30
2023-03-08T23:38:50.459Z,10.30
2023-03-08T23:41:18.518Z,10.30
2023-03-08T23:43:46.894Z,10.30
2023-03-08T23:46:19.138Z,10.30
2023-03-08T23:48:48.688Z,10.30
2023-03-08T23:51:19.957Z,10.40
2023-03-08T23:53:53.317Z,10.40
2023-03-08T23:56:43.009Z,10.40
2023-03-08T23:59:12.064Z,10.40
